Time;durP1;ratioP1;P1;durP2;ratioP2;P2;SDS_P1;SDS_P2;PMS_P1;PMS_P2;Temp;Humidity;BMP_temperature;BMP_pressure;BME280_temperature;BME280_humidity;BME280_pressure;Samples;Min_cycle;Max_cycle;Signal;HPM_P1;HPM_P2
2023/06/04 00:01:50;;;;;;;3.03;2.07;;;12.40;71.70;;;;;;5049295;28;20179;-69
2023/06/04 00:04:16;;;;;;;3.97;2.07;;;12.40;72.00;;;;;;5056997;28;20175;-67
2023/06/04 00:06:42;;;;;;;3.83;2.60;;;12.30;72.10;;;;;;5052267;28;20200;-67
2023/06/04 00:09:08;;;;;;;3.97;2.10;;;12.30;72.50;;;;;;5052741;28;20199;-67
2023/06/04 00:11:35;;;;;;;2.43;2.13;;;12.30;73.10;;;;;;5052445;28;20224;-67
2023/06/04 00:14:00;;;;;;;2.03;1.83;;;12.30;73.40;;;;;;5050232;28;20428;-68
2023/06/04 00:16:26;;;;;;;2.43;1.93;;;12.20;73.50;;;;;;5053383;28;20416;-68
2023/06/04 00:18:51;;;;;;;4.10;1.90;;;12.10;74.20;;;;;;5046520;28;20207;-67
2023/06/04 00:21:17;;;;;;;2.60;2.10;;;12.10;74.80;;;;;;5054505;28;20182;-68
2023/06/04 00:23:43;;;;;;;4.90;1.80;;;12.10;75.20;;;;;;5051013;28;20186;-67
2023/06/04 00:26:09;;;;;;;2.50;2.30;;;12.00;75.70;;;;;;5053846;28;20618;-68
2023/06/04 00:28:34;;;;;;;2.37;1.60;;;12.00;75.90;;;;;;5051547;28;20467;-68
2023/06/04 00:31:00;;;;;;;3.60;2.27;;;12.00;76.60;;;;;;5054311;28;20243;-68
2023/06/04 00:33:25;;;;;;;3.10;2.23;;;11.90;76.90;;;;;;5050632;28;20167;-68
2023/06/04 00:35:51;;;;;;;2.97;2.20;;;11.90;77.40;;;;;;5052876;28;20179;-68
2023/06/04 00:38:17;;;;;;;2.50;1.90;;;11.80;77.70;;;;;;5050861;28;20238;-67
2023/06/04 00:40:42;;;;;;;5.80;2.40;;;11.70;78.60;;;;;;5050063;28;20179;-68
2023/06/04 00:43:08;;;;;;;2.30;1.63;;;11.80;79.00;;;;;;5053660;28;20638;-67
2023/06/04 00:45:34;;;;;;;2.57;2.37;;;11.70;79.20;;;;;;5050132;28;20630;-67
2023/06/04 00:48:00;;;;;;;5.93;1.90;;;11.60;80.20;;;;;;5052484;28;20939;-68
2023/06/04 00:50:26;;;;;;;2.33;1.50;;;11.60;80.50;;;;;;5049409;28;20241;-68
2023/06/04 00:52:52;;;;;;;3.17;2.10;;;11.50;81.10;;;;;;5048226;28;20888;-67
2023/06/04 00:55:20;;;;;;;3.77;2.73;;;11.50;82.10;;;;;;5052006;28;20513;-68
2023/06/04 00:57:46;;;;;;;2.73;2.20;;;11.50;82.30;;;;;;5045627;28;20479;-68
2023/06/04 01:00:12;;;;;;;2.80;1.90;;;11.40;82.90;;;;;;5050219;28;20409;-68
2023/06/04 01:02:40;;;;;;;3.20;2.10;;;11.30;83.40;;;;;;5052218;28;20179;-68
2023/06/04 01:05:21;;;;;;;3.97;2.60;;;11.20;84.00;;;;;;5050279;28;20540;-68
2023/06/04 01:07:48;;;;;;;4.67;1.87;;;11.20;84.50;;;;;;5063683;22;20824;-77
2023/06/04 01:10:14;;;;;;;2.83;2.13;;;11.20;85.10;;;;;;5031490;28;20410;-69
2023/06/04 01:12:43;;;;;;;2.80;1.97;;;11.10;85.30;;;;;;5026997;28;20441;-69
2023/06/04 01:15:10;;;;;;;4.70;2.00;;;11.00;85.70;;;;;;5031998;28;20514;-69
2023/06/04 01:17:41;;;;;;;2.17;1.70;;;11.00;86.40;;;;;;5031647;28;20418;-68
2023/06/04 01:20:20;;;;;;;3.23;1.87;;;10.90;86.50;;;;;;5028756;28;20505;-69
2023/06/04 01:22:54;;;;;;;3.60;2.10;;;10.90;87.10;;;;;;5031630;28;20414;-69
2023/06/04 01:25:25;;;;;;;4.83;2.10;;;10.80;87.70;;;;;;5027995;28;20452;-69
2023/06/04 01:27:55;;;;;;;2.90;1.90;;;10.80;88.10;;;;;;5031162;28;20500;-71
2023/06/04 01:30:26;;;;;;;2.57;2.37;;;10.70;88.90;;;;;;5027106;28;20439;-72
2023/06/04 01:32:54;;;;;;;2.50;1.60;;;10.70;90.10;;;;;;5031119;28;20905;-69
2023/06/04 01:35:20;;;;;;;1.77;1.67;;;10.60;89.50;;;;;;5025855;28;20429;-70
2023/06/04 01:37:47;;;;;;;2.30;1.90;;;10.60;90.20;;;;;;5028309;28;20492;-68
2023/06/04 01:40:13;;;;;;;2.13;1.80;;;10.60;90.40;;;;;;5030803;28;20417;-68
2023/06/04 01:42:38;;;;;;;3.10;1.20;;;10.60;90.60;;;;;;5025614;28;20437;-73
2023/06/04 01:45:05;;;;;;;1.90;1.70;;;10.50;90.90;;;;;;5025972;28;20527;-67
2023/06/04 01:47:30;;;;;;;2.60;2.10;;;10.40;91.10;;;;;;5025427;28;20234;-68
2023/06/04 01:49:56;;;;;;;2.30;1.77;;;10.30;91.20;;;;;;5027835;28;20444;-69
2023/06/04 01:52:21;;;;;;;2.60;1.73;;;10.30;91.40;;;;;;5031141;28;20190;-71
2023/06/04 01:54:52;;;;;;;1.77;1.67;;;10.30;92.00;;;;;;5027584;28;20665;-69
2023/06/04 01:57:21;;;;;;;1.80;1.50;;;10.50;92.00;;;;;;5029980;28;20180;-73
2023/06/04 01:59:47;;;;;;;4.07;1.87;;;10.40;91.80;;;;;;5026120;28;20434;-68
2023/06/04 02:02:14;;;;;;;3.20;1.90;;;10.50;92.20;;;;;;5030731;28;20513;-68
2023/06/04 02:04:41;;;;;;;2.90;1.70;;;10.50;92.30;;;;;;5025414;28;20433;-70
2023/06/04 02:07:09;;;;;;;2.87;1.70;;;10.40;92.10;;;;;;5029386;28;20517;-68
2023/06/04 02:09:35;;;;;;;2.77;2.27;;;10.30;92.40;;;;;;5030245;28;20900;-68
2023/06/04 02:12:02;;;;;;;3.87;2.20;;;10.30;92.60;;;;;;5030657;28;20478;-68
2023/06/04 02:14:27;;;;;;;1.70;1.60;;;10.30;92.70;;;;;;5029268;28;20412;-69
2023/06/04 02:16:57;;;;;;;5.70;1.60;;;10.20;93.00;;;;;;5025893;28;20488;-69
2023/06/04 02:19:26;;;;;;;8.20;1.83;;;10.20;93.20;;;;;;5026886;28;20197;-70
2023/06/04 02:21:53;;;;;;;2.37;2.17;;;10.30;93.70;;;;;;5029165;28;20530;-69
2023/06/04 02:24:19;;;;;;;2.43;1.90;;;10.20;93.60;;;;;;5030244;28;20420;-75
2023/06/04 02:26:45;;;;;;;2.87;1.70;;;10.20;93.70;;;;;;5025785;28;20515;-71
2023/06/04 02:29:10;;;;;;;2.20;1.60;;;10.10;93.90;;;;;;5030292;28;20432;-69
2023/06/04 02:31:36;;;;;;;5.17;3.03;;;10.20;94.00;;;;;;5026842;28;20663;-70
2023/06/04 02:34:02;;;;;;;2.03;1.80;;;10.20;93.90;;;;;;5030424;28;20212;-70
2023/06/04 02:36:30;;;;;;;3.13;2.47;;;10.20;94.00;;;;;;5025320;28;20186;-70
2023/06/04 02:38:55;;;;;;;2.67;1.60;;;10.20;94.10;;;;;;5027540;28;20526;-69
2023/06/04 02:41:22;;;;;;;1.57;1.33;;;10.20;94.30;;;;;;5025519;28;20501;-72
2023/06/04 02:43:47;;;;;;;2.00;1.40;;;10.10;94.30;;;;;;5030079;28;20204;-68
2023/06/04 02:46:13;;;;;;;1.30;1.20;;;10.00;94.60;;;;;;5024820;28;20459;-70
2023/06/04 02:48:39;;;;;;;2.50;1.60;;;10.10;95.00;;;;;;5026793;28;20287;-68
2023/06/04 02:51:05;;;;;;;3.43;1.97;;;10.10;95.00;;;;;;5030491;28;20251;-67
2023/06/04 02:53:30;;;;;;;2.10;1.53;;;10.00;95.00;;;;;;5026625;28;20179;-67
2023/06/04 02:55:56;;;;;;;2.90;1.73;;;10.10;95.30;;;;;;5026467;28;20519;-68
2023/06/04 02:58:24;;;;;;;1.90;1.60;;;10.00;95.50;;;;;;5029497;28;20615;-69
2023/06/04 03:00:52;;;;;;;1.57;1.47;;;10.00;95.60;;;;;;5028524;28;20199;-70
2023/06/04 03:03:18;;;;;;;2.60;1.87;;;10.00;95.80;;;;;;5025040;28;20416;-70
2023/06/04 03:05:43;;;;;;;1.83;1.57;;;10.00;96.00;;;;;;5026634;28;20820;-71
2023/06/04 03:08:09;;;;;;;2.87;1.80;;;9.90;96.60;;;;;;5030046;28;20310;-69
2023/06/04 03:10:35;;;;;;;1.63;1.33;;;9.80;96.80;;;;;;5023421;28;20182;-69
2023/06/04 03:13:00;;;;;;;1.93;1.47;;;9.90;96.90;;;;;;5030005;28;20178;-69
2023/06/04 03:15:26;;;;;;;3.90;1.70;;;10.00;96.40;;;;;;5024187;28;20206;-70
2023/06/04 03:17:52;;;;;;;2.10;1.60;;;10.00;96.20;;;;;;5028913;28;20200;-70
2023/06/04 03:20:17;;;;;;;1.40;1.30;;;10.00;96.30;;;;;;5029463;28;20174;-71
2023/06/04 03:22:43;;;;;;;3.27;2.10;;;10.00;96.40;;;;;;5027142;28;20472;-69
2023/06/04 03:25:09;;;;;;;2.63;1.80;;;10.10;96.50;;;;;;5029725;28;20716;-68
2023/06/04 03:27:35;;;;;;;4.23;2.10;;;10.20;96.50;;;;;;5026028;28;20181;-69
2023/06/04 03:30:01;;;;;;;1.23;1.13;;;10.20;96.30;;;;;;5025471;28;20394;-70
2023/06/04 03:32:27;;;;;;;2.53;1.67;;;10.20;96.20;;;;;;5028899;28;20415;-70
2023/06/04 03:34:53;;;;;;;1.90;1.53;;;10.20;96.40;;;;;;5022631;28;20416;-72
2023/06/04 03:37:18;;;;;;;1.67;1.23;;;10.20;96.50;;;;;;5029211;28;20168;-69
2023/06/04 03:39:44;;;;;;;2.70;1.73;;;10.20;96.50;;;;;;5020376;28;20246;-69
2023/06/04 03:42:10;;;;;;;2.23;1.70;;;10.20;96.70;;;;;;5024715;28;20223;-70
2023/06/04 03:44:35;;;;;;;4.60;1.80;;;10.30;96.70;;;;;;5027744;28;20175;-70
2023/06/04 03:47:01;;;;;;;2.30;1.80;;;10.30;96.50;;;;;;5025505;28;20519;-72
2023/06/04 03:49:26;;;;;;;2.43;1.50;;;10.40;96.50;;;;;;5028970;28;20187;-69
2023/06/04 03:51:52;;;;;;;2.50;1.60;;;10.40;96.70;;;;;;5025474;28;20819;-69
2023/06/04 03:54:18;;;;;;;2.03;1.60;;;10.50;96.70;;;;;;5028701;28;20175;-69
2023/06/04 03:56:47;;;;;;;2.37;1.37;;;10.50;96.60;;;;;;5029958;28;20191;-68
2023/06/04 03:59:13;;;;;;;3.40;2.10;;;10.60;96.80;;;;;;5023970;28;20278;-68
2023/06/04 04:01:39;;;;;;;2.17;1.63;;;10.60;96.70;;;;;;5029334;28;20505;-68
2023/06/04 04:04:05;;;;;;;4.30;1.50;;;10.70;96.80;;;;;;5025721;28;20517;-69
2023/06/04 04:06:31;;;;;;;3.47;1.80;;;10.80;97.00;;;;;;5027614;28;20204;-69
2023/06/04 04:08:58;;;;;;;2.70;1.63;;;10.80;97.00;;;;;;5022099;28;20799;-69
2023/06/04 04:11:23;;;;;;;1.77;1.40;;;10.80;96.80;;;;;;5028626;28;20194;-69
2023/06/04 04:13:49;;;;;;;4.03;2.13;;;10.90;96.80;;;;;;5024377;28;20731;-69
2023/06/04 04:16:14;;;;;;;4.50;1.93;;;11.00;96.70;;;;;;5026159;28;20212;-69
2023/06/04 04:18:43;;;;;;;5.43;1.97;;;11.50;96.60;;;;;;5024853;28;20188;-70
2023/06/04 04:21:10;;;;;;;3.23;1.80;;;12.80;95.40;;;;;;5027278;28;20180;-69
2023/06/04 04:23:37;;;;;;;2.23;1.63;;;13.50;93.50;;;;;;5025448;28;20503;-71
2023/06/04 04:26:03;;;;;;;1.97;1.40;;;14.00;92.00;;;;;;5027686;28;20450;-69
2023/06/04 04:28:30;;;;;;;3.93;1.70;;;14.20;91.80;;;;;;5022785;28;20439;-70
2023/06/04 04:31:02;;;;;;;2.23;1.80;;;14.40;91.40;;;;;;5027072;28;20256;-69
2023/06/04 04:33:32;;;;;;;3.57;1.73;;;14.60;90.90;;;;;;5022020;28;20444;-69
2023/06/04 04:35:59;;;;;;;1.93;1.43;;;14.60;90.60;;;;;;5024599;28;20495;-69
2023/06/04 04:38:25;;;;;;;2.70;1.90;;;15.00;90.10;;;;;;5028163;28;20771;-69
2023/06/04 04:40:52;;;;;;;1.67;1.33;;;14.90;89.70;;;;;;5025337;28;20430;-71
2023/06/04 04:43:29;;;;;;;4.50;1.90;;;15.20;88.50;;;;;;5030516;28;20653;-68
2023/06/04 04:45:55;;;;;;;2.37;1.50;;;15.00;88.20;;;;;;5025849;28;20460;-69
2023/06/04 04:48:21;;;;;;;1.83;1.60;;;14.60;89.70;;;;;;5028429;28;20454;-71
2023/06/04 04:50:46;;;;;;;2.70;2.17;;;14.20;90.60;;;;;;5026691;28;20184;-69
2023/06/04 04:53:12;;;;;;;4.93;1.50;;;14.30;90.90;;;;;;5029420;28;20174;-69
2023/06/04 04:55:37;;;;;;;2.17;1.57;;;14.50;90.50;;;;;;5031560;28;20609;-70
2023/06/04 04:58:03;;;;;;;8.80;1.80;;;14.70;90.00;;;;;;5028418;28;20187;-70
2023/06/04 05:00:30;;;;;;;3.20;1.70;;;14.90;90.00;;;;;;5030781;28;20186;-69
2023/06/04 05:02:55;;;;;;;3.33;1.70;;;15.20;89.70;;;;;;5026531;28;20178;-70
2023/06/04 05:05:21;;;;;;;1.97;1.80;;;15.50;90.10;;;;;;5030424;28;20998;-72
2023/06/04 05:07:47;;;;;;;1.63;1.50;;;15.50;88.00;;;;;;5026397;28;20226;-69
2023/06/04 05:10:12;;;;;;;2.10;1.90;;;15.90;88.00;;;;;;5029135;28;20194;-70
2023/06/04 05:12:38;;;;;;;2.60;1.80;;;15.70;86.50;;;;;;5031988;28;20176;-70
2023/06/04 05:15:04;;;;;;;2.73;1.80;;;15.80;86.30;;;;;;5027994;28;20181;-71
2023/06/04 05:17:30;;;;;;;5.63;1.63;;;16.60;85.50;;;;;;5027360;28;20233;-74
2023/06/04 05:20:11;;;;;;;2.50;1.67;;;17.10;83.80;;;;;;5029843;28;20953;-69
2023/06/04 05:22:39;;;;;;;1.90;1.40;;;16.90;83.10;;;;;;5027997;28;20190;-69
2023/06/04 05:25:06;;;;;;;1.43;1.33;;;17.20;82.50;;;;;;5029229;28;20461;-69
2023/06/04 05:27:32;;;;;;;4.63;1.90;;;16.70;84.10;;;;;;5029864;28;20421;-68
2023/06/04 05:29:58;;;;;;;1.60;1.50;;;16.90;83.30;;;;;;5026608;28;20495;-68
2023/06/04 05:32:28;;;;;;;2.60;1.60;;;17.30;81.30;;;;;;5030968;28;20182;-68
2023/06/04 05:34:56;;;;;;;2.40;1.60;;;17.30;82.60;;;;;;5024314;28;20467;-68
2023/06/04 05:37:23;;;;;;;3.33;1.90;;;18.10;80.30;;;;;;5030957;28;20418;-72
2023/06/04 05:39:50;;;;;;;2.90;1.30;;;18.10;80.30;;;;;;5029976;28;20955;-70
2023/06/04 05:42:15;;;;;;;2.40;1.57;;;18.00;80.30;;;;;;5030312;28;20420;-69
2023/06/04 05:44:41;;;;;;;4.73;1.90;;;18.30;79.20;;;;;;5028312;28;20410;-69
2023/06/04 05:47:07;;;;;;;3.00;1.60;;;18.00;78.50;;;;;;5027058;28;20624;-69
2023/06/04 05:49:34;;;;;;;2.03;1.67;;;18.30;78.10;;;;;;5029458;28;20197;-71
2023/06/04 05:52:00;;;;;;;1.97;1.30;;;18.70;77.10;;;;;;5024859;28;20184;-69
2023/06/04 05:54:26;;;;;;;2.60;1.57;;;19.40;76.70;;;;;;5030037;28;20412;-70
2023/06/04 05:56:52;;;;;;;3.40;1.50;;;19.20;74.10;;;;;;5026086;28;20262;-69
2023/06/04 05:59:17;;;;;;;5.20;1.60;;;20.60;70.10;;;;;;5030039;28;20516;-72
2023/06/04 06:01:43;;;;;;;2.80;1.70;;;21.10;69.10;;;;;;5027935;28;20606;-70
2023/06/04 06:04:10;;;;;;;2.00;1.90;;;20.30;69.90;;;;;;5027292;28;20600;-70
2023/06/04 06:06:36;;;;;;;2.03;1.63;;;20.90;69.80;;;;;;5028904;28;20206;-69
2023/06/04 06:09:01;;;;;;;1.60;1.50;;;21.20;67.20;;;;;;5024427;28;20949;-72
2023/06/04 06:11:28;;;;;;;3.20;1.40;;;21.30;65.70;;;;;;5029160;28;20626;-71
2023/06/04 06:13:53;;;;;;;4.77;1.90;;;21.20;66.40;;;;;;5027030;28;20410;-70
2023/06/04 06:16:19;;;;;;;1.77;1.07;;;21.80;64.10;;;;;;5029196;28;20294;-72
2023/06/04 06:18:45;;;;;;;3.23;2.17;;;22.70;61.40;;;;;;5027722;28;20270;-68
2023/06/04 06:21:10;;;;;;;1.97;1.50;;;23.60;57.10;;;;;;5030167;28;20358;-69
2023/06/04 06:23:36;;;;;;;1.47;1.37;;;23.80;56.80;;;;;;5027067;28;20194;-69
2023/06/04 06:26:03;;;;;;;1.10;1.00;;;23.40;56.90;;;;;;5029359;28;20286;-70
2023/06/04 06:28:28;;;;;;;1.47;1.10;;;24.60;54.40;;;;;;5024872;28;20195;-69
2023/06/04 06:30:54;;;;;;;1.50;1.23;;;24.10;53.20;;;;;;5027152;28;20731;-72
2023/06/04 06:33:21;;;;;;;2.30;1.00;;;24.30;53.00;;;;;;5025247;28;20179;-72
2023/06/04 06:35:47;;;;;;;3.43;1.20;;;23.40;55.80;;;;;;5027524;28;20268;-71
2023/06/04 06:38:13;;;;;;;1.70;1.30;;;23.40;56.20;;;;;;5028295;28;20489;-69
2023/06/04 06:40:40;;;;;;;1.50;1.30;;;23.30;55.50;;;;;;5026613;28;20938;-69
2023/06/04 06:43:06;;;;;;;2.10;1.40;;;24.20;53.10;;;;;;5029158;28;20650;-72
2023/06/04 06:45:31;;;;;;;1.77;1.30;;;24.20;53.60;;;;;;5023925;28;20465;-70
2023/06/04 06:47:57;;;;;;;1.40;1.30;;;24.20;53.60;;;;;;5028164;28;20309;-69
2023/06/04 06:50:22;;;;;;;3.43;1.53;;;24.50;52.40;;;;;;5024739;28;20178;-71
2023/06/04 06:52:48;;;;;;;2.77;1.30;;;24.00;52.80;;;;;;5027196;28;20187;-69
2023/06/04 06:55:14;;;;;;;3.63;1.30;;;23.80;53.70;;;;;;5029361;28;20189;-69
2023/06/04 06:57:39;;;;;;;1.80;1.13;;;23.40;53.10;;;;;;5026151;28;20181;-67
2023/06/04 07:00:06;;;;;;;1.97;1.33;;;23.60;53.70;;;;;;5028582;28;20179;-69
2023/06/04 07:02:31;;;;;;;3.77;1.37;;;24.30;55.60;;;;;;5028448;28;20254;-70
2023/06/04 07:04:57;;;;;;;4.13;1.20;;;24.50;52.80;;;;;;5027321;28;20514;-70
2023/06/04 07:07:23;;;;;;;1.73;1.17;;;24.10;50.70;;;;;;5028814;28;20267;-71
2023/06/04 07:09:49;;;;;;;2.40;1.03;;;24.60;51.80;;;;;;5026837;28;20321;-72
2023/06/04 07:12:14;;;;;;;2.07;1.00;;;24.30;50.00;;;;;;5029581;28;20445;-70
2023/06/04 07:14:40;;;;;;;2.90;1.33;;;24.20;50.90;;;;;;5028314;28;20221;-69
2023/06/04 07:17:06;;;;;;;1.03;0.90;;;24.80;51.80;;;;;;5027094;28;20195;-69
2023/06/04 07:19:31;;;;;;;1.90;0.90;;;24.30;51.50;;;;;;5029334;28;20194;-73
2023/06/04 07:21:57;;;;;;;1.17;0.90;;;25.40;48.70;;;;;;5030505;28;20179;-70
2023/06/04 07:24:22;;;;;;;3.73;1.27;;;27.00;45.90;;;;;;5025221;28;20170;-68
2023/06/04 07:26:48;;;;;;;1.00;0.90;;;27.00;44.40;;;;;;5028790;28;20306;-71
2023/06/04 07:29:14;;;;;;;1.57;1.00;;;25.20;46.50;;;;;;5024854;28;20222;-70
2023/06/04 07:31:41;;;;;;;1.80;1.10;;;25.50;46.90;;;;;;5027470;28;20299;-71
2023/06/04 07:34:06;;;;;;;5.30;1.30;;;26.10;46.50;;;;;;5022229;28;20270;-69
2023/06/04 07:36:32;;;;;;;1.63;1.10;;;26.50;46.00;;;;;;5025761;28;20876;-70
2023/06/04 07:38:59;;;;;;;1.80;1.07;;;27.60;45.20;;;;;;5029687;28;20658;-70
2023/06/04 07:41:25;;;;;;;2.23;1.30;;;26.10;47.50;;;;;;5024820;28;20179;-69
2023/06/04 07:43:51;;;;;;;2.10;1.00;;;25.40;46.30;;;;;;5022487;28;20526;-69
2023/06/04 07:46:18;;;;;;;1.73;1.00;;;25.10;47.00;;;;;;5026394;28;20552;-70
2023/06/04 07:48:45;;;;;;;1.60;0.90;;;26.50;47.60;;;;;;5028303;28;20245;-68
2023/06/04 07:51:11;;;;;;;1.87;1.00;;;26.60;44.10;;;;;;5024459;28;20823;-69
2023/06/04 07:53:37;;;;;;;2.60;1.10;;;28.00;43.40;;;;;;5025667;28;20684;-70
2023/06/04 07:56:03;;;;;;;2.87;1.20;;;27.60;44.30;;;;;;5029655;28;20501;-69
2023/06/04 07:58:29;;;;;;;1.97;1.20;;;26.30;46.60;;;;;;5024014;28;20434;-69
2023/06/04 08:00:55;;;;;;;2.20;1.10;;;25.90;45.60;;;;;;5029503;28;20410;-68
2023/06/04 08:03:21;;;;;;;2.90;1.20;;;27.50;42.40;;;;;;5022161;28;20487;-71
2023/06/04 08:05:47;;;;;;;1.73;1.50;;;27.80;42.60;;;;;;5027373;28;20211;-70
2023/06/04 08:08:13;;;;;;;1.97;1.00;;;27.00;43.50;;;;;;5023590;28;20777;-71
2023/06/04 08:10:42;;;;;;;1.50;1.00;;;25.50;45.60;;;;;;5024144;28;20227;-69
2023/06/04 08:13:08;;;;;;;1.50;1.00;;;27.20;42.40;;;;;;5029523;28;20548;-70
2023/06/04 08:15:34;;;;;;;1.00;0.90;;;27.30;42.20;;;;;;5023525;28;20414;-70
2023/06/04 08:18:00;;;;;;;1.00;0.90;;;26.80;43.50;;;;;;5027038;28;20554;-69
2023/06/04 08:20:25;;;;;;;1.03;0.93;;;27.80;44.00;;;;;;5033353;28;20175;-71
2023/06/04 08:22:51;;;;;;;1.03;0.93;;;26.50;43.50;;;;;;5029374;28;20176;-70
2023/06/04 08:25:17;;;;;;;1.93;1.13;;;27.30;43.20;;;;;;5031698;28;20187;-70
2023/06/04 08:27:43;;;;;;;1.20;0.97;;;27.00;43.00;;;;;;5029792;28;20187;-70
2023/06/04 08:30:09;;;;;;;1.23;1.10;;;27.90;41.50;;;;;;5029492;28;20195;-69
2023/06/04 08:32:35;;;;;;;2.17;1.10;;;27.00;42.80;;;;;;5031010;28;20168;-69
2023/06/04 08:35:01;;;;;;;1.70;1.13;;;27.90;40.50;;;;;;5025519;28;20485;-74
2023/06/04 08:37:26;;;;;;;1.37;1.27;;;27.90;41.20;;;;;;5032032;28;20592;-69
2023/06/04 08:39:52;;;;;;;2.50;1.07;;;25.40;44.60;;;;;;5029171;28;20423;-70
2023/06/04 08:42:31;;;;;;;2.17;1.20;;;25.30;44.20;;;;;;5031472;28;20266;-69
2023/06/04 08:44:58;;;;;;;2.60;1.77;;;25.40;43.60;;;;;;5022501;28;20410;-69
2023/06/04 08:47:28;;;;;;;1.30;1.00;;;25.40;43.90;;;;;;5030449;28;20601;-69
2023/06/04 08:49:58;;;;;;;1.57;1.30;;;25.80;43.60;;;;;;5028105;28;20419;-70
2023/06/04 08:52:25;;;;;;;1.80;1.20;;;27.10;42.40;;;;;;5027844;28;20813;-69
2023/06/04 08:54:52;;;;;;;1.57;0.80;;;26.80;40.70;;;;;;5031925;28;20947;-68
2023/06/04 08:57:21;;;;;;;1.07;0.97;;;26.50;42.70;;;;;;5028462;28;20776;-69
2023/06/04 08:59:47;;;;;;;1.83;1.73;;;26.00;43.40;;;;;;5024681;28;20441;-68
2023/06/04 09:02:14;;;;;;;4.30;1.10;;;26.10;43.50;;;;;;5026220;28;20539;-70
2023/06/04 09:04:40;;;;;;;2.53;0.97;;;27.10;40.70;;;;;;5030174;28;20410;-70
2023/06/04 09:07:08;;;;;;;3.67;1.20;;;27.80;39.50;;;;;;5028713;28;20458;-70
2023/06/04 09:09:38;;;;;;;1.83;1.13;;;28.40;39.60;;;;;;5029367;28;20955;-70
2023/06/04 09:12:06;;;;;;;1.40;1.03;;;27.20;40.60;;;;;;5031969;28;20414;-73
2023/06/04 09:14:31;;;;;;;2.00;1.10;;;25.90;41.20;;;;;;5022865;28;20418;-68
2023/06/04 09:16:58;;;;;;;1.77;1.20;;;26.90;39.40;;;;;;5030877;28;20414;-69
2023/06/04 09:19:24;;;;;;;1.40;1.30;;;27.40;39.70;;;;;;5028621;28;20191;-69
2023/06/04 09:21:52;;;;;;;4.97;1.50;;;25.10;43.50;;;;;;5030829;28;20476;-69
2023/06/04 09:24:22;;;;;;;4.50;0.87;;;26.50;40.80;;;;;;5032324;28;20270;-70
2023/06/04 09:26:48;;;;;;;1.43;1.10;;;27.40;38.80;;;;;;5031653;28;20512;-69
2023/06/04 09:29:15;;;;;;;1.80;1.10;;;27.10;38.90;;;;;;5026630;28;20426;-69
2023/06/04 09:31:41;;;;;;;1.53;1.00;;;25.90;41.90;;;;;;5029862;28;20521;-70
2023/06/04 09:34:07;;;;;;;1.13;0.90;;;25.60;41.70;;;;;;5026709;28;20505;-69
2023/06/04 09:36:35;;;;;;;1.17;1.07;;;26.20;42.70;;;;;;5028159;28;20177;-69
2023/06/04 09:39:05;;;;;;;2.10;1.20;;;25.10;43.00;;;;;;5023057;28;20470;-69
2023/06/04 09:41:30;;;;;;;3.83;1.23;;;24.70;43.40;;;;;;5028851;28;20792;-72
2023/06/04 09:44:02;;;;;;;1.43;1.13;;;25.30;42.70;;;;;;5031838;28;20420;-69
2023/06/04 09:46:28;;;;;;;2.07;1.20;;;25.70;40.00;;;;;;5025545;28;20464;-69
2023/06/04 09:49:04;;;;;;;1.23;1.07;;;24.40;43.00;;;;;;5024386;28;20443;-71
2023/06/04 09:51:30;;;;;;;1.00;0.90;;;25.10;43.40;;;;;;5028557;28;20257;-69
2023/06/04 09:54:01;;;;;;;1.97;1.10;;;25.10;41.40;;;;;;5029740;28;20436;-71
2023/06/04 09:56:28;;;;;;;1.10;1.00;;;26.00;42.30;;;;;;5031492;28;20414;-69
2023/06/04 09:59:02;;;;;;;2.80;1.50;;;27.40;40.80;;;;;;5029723;28;20533;-68
2023/06/04 10:01:29;;;;;;;2.17;1.10;;;26.10;40.40;;;;;;5030361;28;20441;-69
2023/06/04 10:04:01;;;;;;;0.90;0.80;;;24.80;42.40;;;;;;5026129;28;20445;-70
2023/06/04 10:06:32;;;;;;;1.83;1.13;;;24.30;44.10;;;;;;5030556;28;20462;-70
2023/06/04 10:09:03;;;;;;;1.40;1.00;;;24.40;43.30;;;;;;5024918;28;20486;-69
2023/06/04 10:11:36;;;;;;;1.40;1.30;;;24.70;41.90;;;;;;5030787;28;21012;-71
2023/06/04 10:14:23;;;;;;;1.20;1.10;;;23.90;43.90;;;;;;5031072;28;20496;-70
2023/06/04 10:16:50;;;;;;;1.43;1.23;;;24.30;43.60;;;;;;5024024;28;20879;-71
2023/06/04 10:19:17;;;;;;;1.20;1.00;;;24.40;42.50;;;;;;5028204;28;20429;-71
2023/06/04 10:21:43;;;;;;;2.50;1.43;;;24.60;42.30;;;;;;5030538;28;20404;-71
2023/06/04 10:24:09;;;;;;;2.27;1.10;;;24.70;41.70;;;;;;5027070;28;20861;-71
2023/06/04 10:26:36;;;;;;;2.63;1.00;;;24.00;42.60;;;;;;5029333;28;20205;-69
2023/06/04 10:29:02;;;;;;;1.30;1.20;;;24.00;41.50;;;;;;5026405;28;20198;-69
2023/06/04 10:31:29;;;;;;;2.50;1.13;;;24.00;41.10;;;;;;5027396;28;20424;-69
2023/06/04 10:33:57;;;;;;;1.20;1.00;;;23.90;41.80;;;;;;5025989;28;20485;-70
2023/06/04 10:36:25;;;;;;;2.40;1.10;;;23.60;42.20;;;;;;5030296;28;20439;-71
2023/06/04 10:38:55;;;;;;;1.83;1.17;;;23.40;41.90;;;;;;5023479;28;20430;-70
2023/06/04 10:41:21;;;;;;;1.20;0.90;;;22.80;43.00;;;;;;5026233;28;20493;-69
2023/06/04 10:43:51;;;;;;;1.73;1.30;;;22.70;43.60;;;;;;5029522;28;20518;-69
2023/06/04 10:46:18;;;;;;;4.23;1.10;;;22.70;43.60;;;;;;5025988;28;20508;-70
2023/06/04 10:48:52;;;;;;;3.10;1.50;;;23.00;44.50;;;;;;5027069;28;20457;-70
2023/06/04 10:51:33;;;;;;;3.30;1.50;;;23.10;44.90;;;;;;5024853;28;20939;-70
2023/06/04 10:53:59;;;;;;;3.80;1.70;;;23.20;45.20;;;;;;5028626;28;20422;-70
2023/06/04 10:56:37;;;;;;;2.13;1.33;;;23.10;44.50;;;;;;5029330;28;20432;-69
2023/06/04 10:59:16;;;;;;;1.43;1.30;;;22.70;43.80;;;;;;5027050;28;20431;-70
2023/06/04 11:01:42;;;;;;;1.70;1.40;;;22.30;45.20;;;;;;5027017;28;20527;-71
2023/06/04 11:04:27;;;;;;;1.40;1.10;;;22.50;44.60;;;;;;5026233;28;20421;-70
2023/06/04 11:07:04;;;;;;;1.80;1.00;;;22.80;43.20;;;;;;5023076;28;20208;-70
2023/06/04 11:09:30;;;;;;;1.47;1.27;;;22.80;42.70;;;;;;5024861;28;20539;-69
2023/06/04 11:11:57;;;;;;;2.30;1.20;;;22.80;43.60;;;;;;5029244;28;20496;-72
2023/06/04 11:14:23;;;;;;;1.17;1.07;;;22.80;44.00;;;;;;5025597;28;20774;-70
2023/06/04 11:16:49;;;;;;;2.07;1.13;;;22.40;43.30;;;;;;5028161;28;20415;-71
2023/06/04 11:19:14;;;;;;;2.70;1.20;;;22.20;44.10;;;;;;5026968;28;20259;-71
2023/06/04 11:21:40;;;;;;;2.60;1.10;;;22.40;43.50;;;;;;5028084;28;20175;-69
2023/06/04 11:24:06;;;;;;;1.10;1.00;;;22.60;43.10;;;;;;5025993;28;20174;-70
2023/06/04 11:26:35;;;;;;;1.20;1.10;;;22.70;43.00;;;;;;5028343;28;20725;-69
2023/06/04 11:29:05;;;;;;;2.50;1.40;;;22.60;43.00;;;;;;5025118;28;20532;-72
2023/06/04 11:31:44;;;;;;;2.17;1.73;;;22.70;43.20;;;;;;5027509;28;20416;-70
2023/06/04 11:34:11;;;;;;;1.53;1.40;;;22.60;43.70;;;;;;5024272;28;20442;-69
2023/06/04 11:36:37;;;;;;;1.23;1.07;;;22.60;43.50;;;;;;5025817;28;20415;-70
2023/06/04 11:39:07;;;;;;;2.87;1.10;;;22.40;43.10;;;;;;5028352;28;20462;-70
2023/06/04 11:41:35;;;;;;;2.10;1.27;;;22.60;43.70;;;;;;5023968;28;20407;-70
2023/06/04 11:44:05;;;;;;;2.30;1.40;;;22.50;44.70;;;;;;5029741;28;20532;-69
2023/06/04 11:46:35;;;;;;;2.57;1.70;;;22.50;44.90;;;;;;5023253;28;20750;-71
2023/06/04 11:49:02;;;;;;;3.17;1.33;;;22.70;43.10;;;;;;5029605;28;20555;-69
2023/06/04 11:51:28;;;;;;;1.27;1.17;;;22.50;43.70;;;;;;5023008;28;20754;-70
2023/06/04 11:53:55;;;;;;;4.33;1.23;;;22.50;43.80;;;;;;5030927;28;20859;-68
2023/06/04 11:56:24;;;;;;;1.70;1.40;;;22.60;44.70;;;;;;5032130;28;20555;-70
2023/06/04 11:58:50;;;;;;;2.60;1.57;;;22.70;42.80;;;;;;5029023;28;20436;-70
2023/06/04 12:01:16;;;;;;;1.17;0.97;;;22.70;42.40;;;;;;5034218;28;20419;-71
2023/06/04 12:03:42;;;;;;;2.30;1.40;;;22.90;43.20;;;;;;5026297;28;20427;-69
2023/06/04 12:06:19;;;;;;;1.67;1.20;;;23.00;42.20;;;;;;5033589;28;20209;-71
2023/06/04 12:08:49;;;;;;;1.83;1.37;;;22.70;41.80;;;;;;5024437;28;20457;-69
2023/06/04 12:11:34;;;;;;;1.57;1.10;;;22.70;42.90;;;;;;5032398;28;20408;-75
2023/06/04 12:14:03;;;;;;;2.00;1.37;;;22.70;42.80;;;;;;5024858;28;20844;-69
2023/06/04 12:16:29;;;;;;;1.57;1.33;;;22.70;42.50;;;;;;5031722;28;20716;-68
2023/06/04 12:19:09;;;;;;;1.37;1.17;;;22.80;42.60;;;;;;5030195;28;20493;-69
2023/06/04 12:21:35;;;;;;;1.03;1.00;;;22.90;42.40;;;;;;5033355;28;20189;-70
2023/06/04 12:24:14;;;;;;;5.50;1.87;;;22.70;42.10;;;;;;5033897;28;20408;-73
2023/06/04 12:26:41;;;;;;;1.40;1.30;;;22.80;42.60;;;;;;5033600;28;20454;-71
2023/06/04 12:29:13;;;;;;;1.93;1.50;;;22.80;42.50;;;;;;5031836;28;20539;-70
2023/06/04 12:31:46;;;;;;;2.97;1.90;;;23.10;43.10;;;;;;5028301;28;20494;-72
2023/06/04 12:34:14;;;;;;;2.10;1.73;;;23.20;41.60;;;;;;5032865;28;20400;-70
2023/06/04 12:36:40;;;;;;;2.13;1.40;;;22.90;41.90;;;;;;5030424;28;20507;-70
2023/06/04 12:39:06;;;;;;;2.77;1.10;;;22.80;41.50;;;;;;5027964;28;20457;-70
2023/06/04 12:41:33;;;;;;;4.17;1.50;;;22.70;41.70;;;;;;5032735;28;20411;-68
2023/06/04 12:43:59;;;;;;;1.63;1.53;;;22.60;42.10;;;;;;5031267;28;20467;-69
2023/06/04 12:46:25;;;;;;;1.83;1.50;;;22.70;41.80;;;;;;5031518;28;20463;-69
2023/06/04 12:48:52;;;;;;;2.10;1.90;;;22.70;42.00;;;;;;5028241;28;20831;-71